sensor_id;sensor_type;location;lat;lon;timestamp;P1;durP1;ratioP1;P2;durP2;ratioP2
12663;SDS011;6396;58.490;15.528;2023-04-29T00:01:24;2.23;;;1.40;;
12663;SDS011;6396;58.490;15.528;2023-04-29T00:03:51;3.60;;;1.70;;
12663;SDS011;6396;58.490;15.528;2023-04-29T00:06:18;3.13;;;1.50;;
12663;SDS011;6396;58.490;15.528;2023-04-29T00:08:45;3.73;;;2.07;;
12663;SDS011;6396;58.490;15.528;2023-04-29T00:11:12;4.60;;;1.90;;
12663;SDS011;6396;58.490;15.528;2023-04-29T00:13:39;1.87;;;1.67;;
12663;SDS011;6396;58.490;15.528;2023-04-29T00:16:06;2.70;;;1.60;;
12663;SDS011;6396;58.490;15.528;2023-04-29T00:18:35;2.23;;;1.60;;
12663;SDS011;6396;58.490;15.528;2023-04-29T00:21:04;2.40;;;1.80;;
12663;SDS011;6396;58.490;15.528;2023-04-29T00:23:31;3.10;;;2.20;;
12663;SDS011;6396;58.490;15.528;2023-04-29T00:26:03;2.60;;;2.00;;
12663;SDS011;6396;58.490;15.528;2023-04-29T00:28:30;3.30;;;1.97;;
12663;SDS011;6396;58.490;15.528;2023-04-29T00:31:04;4.33;;;2.20;;
12663;SDS011;6396;58.490;15.528;2023-04-29T00:33:31;2.63;;;2.10;;
12663;SDS011;6396;58.490;15.528;2023-04-29T00:35:59;2.60;;;1.90;;
12663;SDS011;6396;58.490;15.528;2023-04-29T00:38:27;2.77;;;1.93;;
12663;SDS011;6396;58.490;15.528;2023-04-29T00:40:55;2.00;;;1.80;;
12663;SDS011;6396;58.490;15.528;2023-04-29T00:43:22;2.17;;;1.97;;
12663;SDS011;6396;58.490;15.528;2023-04-29T00:45:51;2.13;;;1.70;;
12663;SDS011;6396;58.490;15.528;2023-04-29T00:48:18;3.03;;;2.03;;
12663;SDS011;6396;58.490;15.528;2023-04-29T00:50:45;4.40;;;2.33;;
12663;SDS011;6396;58.490;15.528;2023-04-29T00:53:13;2.97;;;2.13;;
12663;SDS011;6396;58.490;15.528;2023-04-29T00:55:46;2.73;;;2.30;;
12663;SDS011;6396;58.490;15.528;2023-04-29T00:58:16;3.17;;;2.30;;
12663;SDS011;6396;58.490;15.528;2023-04-29T01:00:49;3.33;;;2.40;;
12663;SDS011;6396;58.490;15.528;2023-04-29T01:03:16;2.33;;;2.10;;
12663;SDS011;6396;58.490;15.528;2023-04-29T01:05:51;2.73;;;2.20;;
12663;SDS011;6396;58.490;15.528;2023-04-29T01:08:28;2.70;;;2.13;;
12663;SDS011;6396;58.490;15.528;2023-04-29T01:11:10;3.63;;;1.90;;
12663;SDS011;6396;58.490;15.528;2023-04-29T01:13:41;2.13;;;1.63;;
12663;SDS011;6396;58.490;15.528;2023-04-29T01:16:10;2.20;;;1.97;;
12663;SDS011;6396;58.490;15.528;2023-04-29T01:18:45;1.87;;;1.77;;
12663;SDS011;6396;58.490;15.528;2023-04-29T01:21:20;2.80;;;1.97;;
12663;SDS011;6396;58.490;15.528;2023-04-29T01:23:49;3.83;;;2.40;;
12663;SDS011;6396;58.490;15.528;2023-04-29T01:26:20;2.73;;;2.17;;
12663;SDS011;6396;58.490;15.528;2023-04-29T01:28:49;2.83;;;2.23;;
12663;SDS011;6396;58.490;15.528;2023-04-29T01:31:23;2.33;;;2.00;;
12663;SDS011;6396;58.490;15.528;2023-04-29T01:34:04;2.17;;;1.80;;
12663;SDS011;6396;58.490;15.528;2023-04-29T01:36:43;2.33;;;1.90;;
12663;SDS011;6396;58.490;15.528;2023-04-29T01:39:25;2.30;;;1.90;;
12663;SDS011;6396;58.490;15.528;2023-04-29T01:42:01;3.30;;;1.97;;
12663;SDS011;6396;58.490;15.528;2023-04-29T01:44:35;1.70;;;1.53;;
12663;SDS011;6396;58.490;15.528;2023-04-29T01:47:07;2.70;;;1.77;;
12663;SDS011;6396;58.490;15.528;2023-04-29T01:49:38;3.23;;;1.67;;
12663;SDS011;6396;58.490;15.528;2023-04-29T01:52:06;3.10;;;1.83;;
12663;SDS011;6396;58.490;15.528;2023-04-29T01:54:35;2.67;;;1.40;;
12663;SDS011;6396;58.490;15.528;2023-04-29T01:57:12;1.60;;;1.50;;
12663;SDS011;6396;58.490;15.528;2023-04-29T01:59:39;1.53;;;1.30;;
12663;SDS011;6396;58.490;15.528;2023-04-29T02:02:08;2.73;;;1.87;;
12663;SDS011;6396;58.490;15.528;2023-04-29T02:04:35;1.70;;;1.33;;
12663;SDS011;6396;58.490;15.528;2023-04-29T02:07:02;1.97;;;1.70;;
12663;SDS011;6396;58.490;15.528;2023-04-29T02:09:28;1.90;;;1.63;;
12663;SDS011;6396;58.490;15.528;2023-04-29T02:11:57;2.70;;;1.70;;
12663;SDS011;6396;58.490;15.528;2023-04-29T02:14:24;2.03;;;1.73;;
12663;SDS011;6396;58.490;15.528;2023-04-29T02:16:52;1.77;;;1.57;;
12663;SDS011;6396;58.490;15.528;2023-04-29T02:19:19;1.70;;;1.43;;
12663;SDS011;6396;58.490;15.528;2023-04-29T02:21:47;4.13;;;1.80;;
12663;SDS011;6396;58.490;15.528;2023-04-29T02:24:14;2.13;;;1.67;;
12663;SDS011;6396;58.490;15.528;2023-04-29T02:26:41;1.93;;;1.73;;
12663;SDS011;6396;58.490;15.528;2023-04-29T02:29:09;2.03;;;1.80;;
12663;SDS011;6396;58.490;15.528;2023-04-29T02:34:12;1.50;;;1.40;;
12663;SDS011;6396;58.490;15.528;2023-04-29T02:36:39;2.10;;;1.67;;
12663;SDS011;6396;58.490;15.528;2023-04-29T02:39:05;1.67;;;1.57;;
12663;SDS011;6396;58.490;15.528;2023-04-29T02:41:32;3.17;;;1.77;;
12663;SDS011;6396;58.490;15.528;2023-04-29T02:43:59;1.57;;;1.47;;
12663;SDS011;6396;58.490;15.528;2023-04-29T02:46:28;1.80;;;1.50;;
12663;SDS011;6396;58.490;15.528;2023-04-29T02:48:57;1.70;;;1.57;;
12663;SDS011;6396;58.490;15.528;2023-04-29T02:51:26;2.73;;;1.47;;
12663;SDS011;6396;58.490;15.528;2023-04-29T02:53:54;2.50;;;1.60;;
12663;SDS011;6396;58.490;15.528;2023-04-29T02:56:23;1.87;;;1.50;;
12663;SDS011;6396;58.490;15.528;2023-04-29T02:58:50;2.50;;;1.43;;
12663;SDS011;6396;58.490;15.528;2023-04-29T03:01:17;1.70;;;1.53;;
12663;SDS011;6396;58.490;15.528;2023-04-29T03:03:46;1.40;;;1.30;;
12663;SDS011;6396;58.490;15.528;2023-04-29T03:06:14;1.30;;;1.20;;
12663;SDS011;6396;58.490;15.528;2023-04-29T03:08:41;1.60;;;1.50;;
12663;SDS011;6396;58.490;15.528;2023-04-29T03:13:44;2.17;;;1.40;;
12663;SDS011;6396;58.490;15.528;2023-04-29T03:16:14;2.40;;;1.57;;
12663;SDS011;6396;58.490;15.528;2023-04-29T03:18:41;1.60;;;1.50;;
12663;SDS011;6396;58.490;15.528;2023-04-29T03:21:18;2.23;;;1.60;;
12663;SDS011;6396;58.490;15.528;2023-04-29T03:23:45;1.67;;;1.57;;
12663;SDS011;6396;58.490;15.528;2023-04-29T03:26:14;1.60;;;1.50;;
12663;SDS011;6396;58.490;15.528;2023-04-29T03:28:41;2.53;;;1.60;;
12663;SDS011;6396;58.490;15.528;2023-04-29T03:31:08;2.03;;;1.80;;
12663;SDS011;6396;58.490;15.528;2023-04-29T03:33:36;1.83;;;1.47;;
12663;SDS011;6396;58.490;15.528;2023-04-29T03:36:03;3.53;;;1.73;;
12663;SDS011;6396;58.490;15.528;2023-04-29T03:38:31;2.83;;;1.60;;
12663;SDS011;6396;58.490;15.528;2023-04-29T03:40:58;2.27;;;1.50;;
12663;SDS011;6396;58.490;15.528;2023-04-29T03:43:27;1.60;;;1.50;;
12663;SDS011;6396;58.490;15.528;2023-04-29T03:45:54;1.80;;;1.70;;
12663;SDS011;6396;58.490;15.528;2023-04-29T03:50:52;2.00;;;1.73;;
12663;SDS011;6396;58.490;15.528;2023-04-29T03:53:21;3.90;;;2.00;;
12663;SDS011;6396;58.490;15.528;2023-04-29T03:55:49;3.73;;;2.00;;
12663;SDS011;6396;58.490;15.528;2023-04-29T03:58:20;2.80;;;1.67;;
12663;SDS011;6396;58.490;15.528;2023-04-29T04:00:47;2.80;;;1.80;;
12663;SDS011;6396;58.490;15.528;2023-04-29T04:03:14;3.80;;;1.87;;
12663;SDS011;6396;58.490;15.528;2023-04-29T04:05:41;3.13;;;1.70;;
12663;SDS011;6396;58.490;15.528;2023-04-29T04:08:12;1.83;;;1.60;;
12663;SDS011;6396;58.490;15.528;2023-04-29T04:10:38;2.93;;;1.50;;
12663;SDS011;6396;58.490;15.528;2023-04-29T04:13:07;2.13;;;1.30;;
12663;SDS011;6396;58.490;15.528;2023-04-29T04:15:33;2.17;;;1.57;;
12663;SDS011;6396;58.490;15.528;2023-04-29T04:18:02;1.70;;;1.33;;
12663;SDS011;6396;58.490;15.528;2023-04-29T04:20:29;3.10;;;1.30;;
12663;SDS011;6396;58.490;15.528;2023-04-29T04:23:03;2.80;;;1.50;;
12663;SDS011;6396;58.490;15.528;2023-04-29T04:25:30;2.63;;;1.50;;
12663;SDS011;6396;58.490;15.528;2023-04-29T04:27:57;1.47;;;1.33;;
12663;SDS011;6396;58.490;15.528;2023-04-29T04:30:25;2.03;;;1.23;;
12663;SDS011;6396;58.490;15.528;2023-04-29T04:32:54;1.30;;;1.20;;
12663;SDS011;6396;58.490;15.528;2023-04-29T04:35:21;1.30;;;1.20;;
12663;SDS011;6396;58.490;15.528;2023-04-29T04:37:48;2.30;;;1.20;;
12663;SDS011;6396;58.490;15.528;2023-04-29T04:40:15;1.83;;;1.40;;
12663;SDS011;6396;58.490;15.528;2023-04-29T04:42:43;1.47;;;1.07;;
12663;SDS011;6396;58.490;15.528;2023-04-29T04:45:10;1.97;;;1.10;;
12663;SDS011;6396;58.490;15.528;2023-04-29T04:47:45;1.30;;;1.20;;
12663;SDS011;6396;58.490;15.528;2023-04-29T04:50:12;1.33;;;1.23;;
12663;SDS011;6396;58.490;15.528;2023-04-29T04:52:39;1.30;;;1.20;;
12663;SDS011;6396;58.490;15.528;2023-04-29T04:55:07;2.00;;;1.40;;
12663;SDS011;6396;58.490;15.528;2023-04-29T04:57:36;2.07;;;1.17;;
12663;SDS011;6396;58.490;15.528;2023-04-29T05:00:03;1.23;;;1.00;;
12663;SDS011;6396;58.490;15.528;2023-04-29T05:02:32;2.17;;;1.10;;
12663;SDS011;6396;58.490;15.528;2023-04-29T05:05:00;1.40;;;1.00;;
12663;SDS011;6396;58.490;15.528;2023-04-29T05:07:27;1.13;;;1.03;;
12663;SDS011;6396;58.490;15.528;2023-04-29T05:09:54;2.50;;;1.20;;
12663;SDS011;6396;58.490;15.528;2023-04-29T05:12:21;3.13;;;1.20;;
12663;SDS011;6396;58.490;15.528;2023-04-29T05:14:51;1.43;;;1.20;;
12663;SDS011;6396;58.490;15.528;2023-04-29T05:17:20;1.87;;;1.10;;
12663;SDS011;6396;58.490;15.528;2023-04-29T05:19:47;1.30;;;1.20;;
12663;SDS011;6396;58.490;15.528;2023-04-29T05:22:16;3.70;;;1.07;;
12663;SDS011;6396;58.490;15.528;2023-04-29T05:24:42;1.27;;;0.97;;
12663;SDS011;6396;58.490;15.528;2023-04-29T05:27:10;1.40;;;1.27;;
12663;SDS011;6396;58.490;15.528;2023-04-29T05:29:36;1.50;;;1.10;;
12663;SDS011;6396;58.490;15.528;2023-04-29T05:32:04;1.20;;;1.00;;
12663;SDS011;6396;58.490;15.528;2023-04-29T05:34:32;1.07;;;1.00;;
12663;SDS011;6396;58.490;15.528;2023-04-29T05:36:59;2.17;;;1.20;;
12663;SDS011;6396;58.490;15.528;2023-04-29T05:39:27;1.90;;;1.20;;
12663;SDS011;6396;58.490;15.528;2023-04-29T05:41:55;1.17;;;1.07;;
12663;SDS011;6396;58.490;15.528;2023-04-29T05:44:23;1.53;;;1.07;;
12663;SDS011;6396;58.490;15.528;2023-04-29T05:46:53;2.37;;;1.20;;
12663;SDS011;6396;58.490;15.528;2023-04-29T05:49:20;1.30;;;1.20;;
12663;SDS011;6396;58.490;15.528;2023-04-29T05:51:48;1.47;;;1.30;;
12663;SDS011;6396;58.490;15.528;2023-04-29T05:54:14;1.50;;;1.40;;
12663;SDS011;6396;58.490;15.528;2023-04-29T05:56:45;2.27;;;1.80;;
12663;SDS011;6396;58.490;15.528;2023-04-29T05:59:12;1.80;;;1.50;;
12663;SDS011;6396;58.490;15.528;2023-04-29T06:01:39;2.90;;;1.50;;
12663;SDS011;6396;58.490;15.528;2023-04-29T06:04:05;2.10;;;1.70;;
12663;SDS011;6396;58.490;15.528;2023-04-29T06:06:32;2.40;;;1.53;;
12663;SDS011;6396;58.490;15.528;2023-04-29T06:08:59;2.23;;;1.40;;
12663;SDS011;6396;58.490;15.528;2023-04-29T06:11:26;1.30;;;1.20;;
12663;SDS011;6396;58.490;15.528;2023-04-29T06:13:56;3.27;;;1.77;;
12663;SDS011;6396;58.490;15.528;2023-04-29T06:16:22;2.87;;;1.53;;
12663;SDS011;6396;58.490;15.528;2023-04-29T06:18:49;1.73;;;1.33;;
12663;SDS011;6396;58.490;15.528;2023-04-29T06:21:16;2.73;;;1.67;;
12663;SDS011;6396;58.490;15.528;2023-04-29T06:23:44;3.07;;;1.53;;
12663;SDS011;6396;58.490;15.528;2023-04-29T06:26:11;1.73;;;1.40;;
12663;SDS011;6396;58.490;15.528;2023-04-29T06:28:38;2.03;;;1.60;;
12663;SDS011;6396;58.490;15.528;2023-04-29T06:31:06;2.33;;;1.30;;
12663;SDS011;6396;58.490;15.528;2023-04-29T06:33:34;3.97;;;1.60;;
12663;SDS011;6396;58.490;15.528;2023-04-29T06:36:01;3.67;;;1.50;;
12663;SDS011;6396;58.490;15.528;2023-04-29T06:38:34;1.73;;;1.50;;
12663;SDS011;6396;58.490;15.528;2023-04-29T06:41:01;1.60;;;1.47;;
12663;SDS011;6396;58.490;15.528;2023-04-29T06:43:29;2.37;;;1.43;;
12663;SDS011;6396;58.490;15.528;2023-04-29T06:45:56;2.37;;;1.67;;
12663;SDS011;6396;58.490;15.528;2023-04-29T06:48:26;1.97;;;1.50;;
12663;SDS011;6396;58.490;15.528;2023-04-29T06:50:54;1.70;;;1.40;;
12663;SDS011;6396;58.490;15.528;2023-04-29T06:53:23;1.87;;;1.67;;
12663;SDS011;6396;58.490;15.528;2023-04-29T06:55:50;3.70;;;1.60;;
12663;SDS011;6396;58.490;15.528;2023-04-29T06:58:17;5.57;;;1.70;;
12663;SDS011;6396;58.490;15.528;2023-04-29T07:00:45;1.80;;;1.40;;
12663;SDS011;6396;58.490;15.528;2023-04-29T07:03:14;4.00;;;1.60;;
12663;SDS011;6396;58.490;15.528;2023-04-29T07:05:43;1.90;;;1.40;;
12663;SDS011;6396;58.490;15.528;2023-04-29T07:08:11;3.00;;;1.20;;
12663;SDS011;6396;58.490;15.528;2023-04-29T07:10:39;2.10;;;1.60;;
12663;SDS011;6396;58.490;15.528;2023-04-29T07:13:06;2.17;;;1.40;;
12663;SDS011;6396;58.490;15.528;2023-04-29T07:15:33;2.30;;;1.80;;
12663;SDS011;6396;58.490;15.528;2023-04-29T07:18:07;3.50;;;1.70;;
12663;SDS011;6396;58.490;15.528;2023-04-29T07:20:35;1.67;;;1.37;;
12663;SDS011;6396;58.490;15.528;2023-04-29T07:23:04;2.57;;;1.53;;
12663;SDS011;6396;58.490;15.528;2023-04-29T07:25:30;1.40;;;1.30;;
12663;SDS011;6396;58.490;15.528;2023-04-29T07:28:00;2.67;;;1.67;;
12663;SDS011;6396;58.490;15.528;2023-04-29T07:30:27;1.40;;;1.23;;
12663;SDS011;6396;58.490;15.528;2023-04-29T07:32:55;2.07;;;1.60;;
12663;SDS011;6396;58.490;15.528;2023-04-29T07:35:22;1.70;;;1.53;;
12663;SDS011;6396;58.490;15.528;2023-04-29T07:37:49;3.73;;;2.00;;
12663;SDS011;6396;58.490;15.528;2023-04-29T07:40:17;2.77;;;1.53;;
12663;SDS011;6396;58.490;15.528;2023-04-29T07:42:49;1.90;;;1.67;;
12663;SDS011;6396;58.490;15.528;2023-04-29T07:45:16;3.23;;;1.97;;
12663;SDS011;6396;58.490;15.528;2023-04-29T07:47:43;2.43;;;1.43;;
12663;SDS011;6396;58.490;15.528;2023-04-29T07:50:10;1.67;;;1.50;;
12663;SDS011;6396;58.490;15.528;2023-04-29T07:52:38;3.87;;;1.60;;
12663;SDS011;6396;58.490;15.528;2023-04-29T07:55:05;1.80;;;1.27;;
12663;SDS011;6396;58.490;15.528;2023-04-29T07:57:36;1.80;;;1.50;;
12663;SDS011;6396;58.490;15.528;2023-04-29T08:00:03;1.73;;;1.50;;
12663;SDS011;6396;58.490;15.528;2023-04-29T08:02:32;2.07;;;1.63;;
12663;SDS011;6396;58.490;15.528;2023-04-29T08:04:59;1.70;;;1.47;;
12663;SDS011;6396;58.490;15.528;2023-04-29T08:07:26;2.17;;;1.70;;
12663;SDS011;6396;58.490;15.528;2023-04-29T08:09:53;2.17;;;1.40;;
12663;SDS011;6396;58.490;15.528;2023-04-29T08:12:21;2.90;;;1.60;;
12663;SDS011;6396;58.490;15.528;2023-04-29T08:14:49;2.53;;;1.53;;
12663;SDS011;6396;58.490;15.528;2023-04-29T08:17:25;2.43;;;1.30;;
12663;SDS011;6396;58.490;15.528;2023-04-29T08:19:52;2.37;;;1.20;;
12663;SDS011;6396;58.490;15.528;2023-04-29T08:22:19;1.63;;;1.30;;
12663;SDS011;6396;58.490;15.528;2023-04-29T08:24:46;2.43;;;1.20;;
12663;SDS011;6396;58.490;15.528;2023-04-29T08:27:13;2.23;;;1.50;;
12663;SDS011;6396;58.490;15.528;2023-04-29T08:29:40;1.93;;;1.40;;
12663;SDS011;6396;58.490;15.528;2023-04-29T08:32:09;2.07;;;1.60;;
12663;SDS011;6396;58.490;15.528;2023-04-29T08:34:36;2.93;;;1.37;;
12663;SDS011;6396;58.490;15.528;2023-04-29T08:37:02;1.50;;;1.30;;
12663;SDS011;6396;58.490;15.528;2023-04-29T08:39:30;2.33;;;1.20;;
12663;SDS011;6396;58.490;15.528;2023-04-29T08:41:57;2.10;;;1.40;;
12663;SDS011;6396;58.490;15.528;2023-04-29T08:44:24;2.23;;;1.27;;
12663;SDS011;6396;58.490;15.528;2023-04-29T08:46:52;3.47;;;1.33;;
12663;SDS011;6396;58.490;15.528;2023-04-29T08:49:21;1.30;;;1.10;;
12663;SDS011;6396;58.490;15.528;2023-04-29T08:51:48;1.37;;;1.10;;
12663;SDS011;6396;58.490;15.528;2023-04-29T08:54:15;3.33;;;1.47;;
12663;SDS011;6396;58.490;15.528;2023-04-29T08:56:43;2.00;;;1.30;;
12663;SDS011;6396;58.490;15.528;2023-04-29T08:59:11;1.50;;;1.40;;
12663;SDS011;6396;58.490;15.528;2023-04-29T09:01:40;1.90;;;1.30;;
12663;SDS011;6396;58.490;15.528;2023-04-29T09:04:14;1.90;;;1.60;;
12663;SDS011;6396;58.490;15.528;2023-04-29T09:06:55;1.87;;;1.37;;
12663;SDS011;6396;58.490;15.528;2023-04-29T09:09:24;2.43;;;1.63;;
12663;SDS011;6396;58.490;15.528;2023-04-29T09:11:51;1.90;;;1.47;;
12663;SDS011;6396;58.490;15.528;2023-04-29T09:14:21;1.50;;;1.40;;
12663;SDS011;6396;58.490;15.528;2023-04-29T09:16:48;3.00;;;2.10;;
12663;SDS011;6396;58.490;15.528;2023-04-29T09:19:29;3.63;;;2.50;;
12663;SDS011;6396;58.490;15.528;2023-04-29T09:21:57;2.63;;;2.33;;
12663;SDS011;6396;58.490;15.528;2023-04-29T09:24:24;2.43;;;2.23;;
12663;SDS011;6396;58.490;15.528;2023-04-29T09:26:51;3.63;;;2.30;;
12663;SDS011;6396;58.490;15.528;2023-04-29T09:29:19;3.50;;;2.17;;
12663;SDS011;6396;58.490;15.528;2023-04-29T09:31:46;5.43;;;2.77;;
12663;SDS011;6396;58.490;15.528;2023-04-29T09:34:14;5.40;;;2.70;;
12663;SDS011;6396;58.490;15.528;2023-04-29T09:36:43;4.57;;;2.40;;
12663;SDS011;6396;58.490;15.528;2023-04-29T09:39:11;5.13;;;2.37;;
12663;SDS011;6396;58.490;15.528;2023-04-29T09:41:55;3.13;;;2.67;;
12663;SDS011;6396;58.490;15.528;2023-04-29T09:44:25;3.00;;;2.10;;
12663;SDS011;6396;58.490;15.528;2023-04-29T09:46:53;6.13;;;2.30;;
12663;SDS011;6396;58.490;15.528;2023-04-29T09:49:22;3.10;;;2.40;;
12663;SDS011;6396;58.490;15.528;2023-04-29T09:51:55;2.93;;;2.43;;
12663;SDS011;6396;58.490;15.528;2023-04-29T09:54:24;3.70;;;2.50;;
12663;SDS011;6396;58.490;15.528;2023-04-29T09:56:53;4.63;;;2.30;;
12663;SDS011;6396;58.490;15.528;2023-04-29T09:59:21;3.27;;;2.80;;
12663;SDS011;6396;58.490;15.528;2023-04-29T10:01:49;4.90;;;2.47;;
12663;SDS011;6396;58.490;15.528;2023-04-29T10:04:18;5.70;;;2.73;;
12663;SDS011;6396;58.490;15.528;2023-04-29T10:06:47;4.07;;;2.67;;
12663;SDS011;6396;58.490;15.528;2023-04-29T10:09:18;4.17;;;2.47;;
12663;SDS011;6396;58.490;15.528;2023-04-29T10:11:46;3.53;;;2.70;;
12663;SDS011;6396;58.490;15.528;2023-04-29T10:14:15;4.00;;;2.70;;
12663;SDS011;6396;58.490;15.528;2023-04-29T10:16:46;4.50;;;2.30;;
12663;SDS011;6396;58.490;15.528;2023-04-29T10:19:17;4.13;;;2.97;;
12663;SDS011;6396;58.490;15.528;2023-04-29T10:21:49;4.10;;;2.27;;
12663;SDS011;6396;58.490;15.528;2023-04-29T10:24:19;3.27;;;2.10;;
12663;SDS011;6396;58.490;15.528;2023-04-29T10:26:47;4.90;;;2.77;;
12663;SDS011;6396;58.490;15.528;2023-04-29T10:29:18;4.47;;;3.00;;
12663;SDS011;6396;58.490;15.528;2023-04-29T10:31:47;5.30;;;3.97;;
12663;SDS011;6396;58.490;15.528;2023-04-29T10:34:15;7.90;;;5.03;;
12663;SDS011;6396;58.490;15.528;2023-04-29T10:36:42;5.33;;;4.17;;
12663;SDS011;6396;58.490;15.528;2023-04-29T10:39:12;2.67;;;2.47;;
12663;SDS011;6396;58.490;15.528;2023-04-29T10:41:48;4.67;;;3.13;;
12663;SDS011;6396;58.490;15.528;2023-04-29T10:44:17;6.17;;;3.43;;
12663;SDS011;6396;58.490;15.528;2023-04-29T10:46:43;3.73;;;3.03;;
12663;SDS011;6396;58.490;15.528;2023-04-29T10:49:10;5.10;;;3.10;;
12663;SDS011;6396;58.490;15.528;2023-04-29T10:51:39;3.63;;;3.00;;
12663;SDS011;6396;58.490;15.528;2023-04-29T10:54:08;3.77;;;3.20;;
12663;SDS011;6396;58.490;15.528;2023-04-29T10:56:41;3.43;;;2.97;;
12663;SDS011;6396;58.490;15.528;2023-04-29T10:59:11;4.70;;;3.10;;
12663;SDS011;6396;58.490;15.528;2023-04-29T11:01:41;5.17;;;3.37;;
12663;SDS011;6396;58.490;15.528;2023-04-29T11:04:12;5.53;;;3.70;;
12663;SDS011;6396;58.490;15.528;2023-04-29T11:06:40;3.87;;;3.47;;
12663;SDS011;6396;58.490;15.528;2023-04-29T11:09:09;4.87;;;3.27;;
12663;SDS011;6396;58.490;15.528;2023-04-29T11:11:57;3.77;;;2.77;;
12663;SDS011;6396;58.490;15.528;2023-04-29T11:14:33;5.40;;;3.27;;
12663;SDS011;6396;58.490;15.528;2023-04-29T11:17:02;4.93;;;3.03;;
12663;SDS011;6396;58.490;15.528;2023-04-29T11:22:10;5.00;;;3.03;;
12663;SDS011;6396;58.490;15.528;2023-04-29T11:24:49;3.07;;;2.43;;
12663;SDS011;6396;58.490;15.528;2023-04-29T11:27:17;5.83;;;3.07;;
12663;SDS011;6396;58.490;15.528;2023-04-29T11:29:48;5.43;;;3.63;;
12663;SDS011;6396;58.490;15.528;2023-04-29T11:32:19;2.90;;;2.70;;
12663;SDS011;6396;58.490;15.528;2023-04-29T11:34:46;4.30;;;2.83;;
12663;SDS011;6396;58.490;15.528;2023-04-29T11:37:18;3.73;;;2.93;;
12663;SDS011;6396;58.490;15.528;2023-04-29T11:39:48;4.33;;;2.57;;
12663;SDS011;6396;58.490;15.528;2023-04-29T11:42:19;5.93;;;2.80;;
12663;SDS011;6396;58.490;15.528;2023-04-29T11:44:51;4.30;;;2.90;;
12663;SDS011;6396;58.490;15.528;2023-04-29T11:47:20;2.73;;;2.50;;
12663;SDS011;6396;58.490;15.528;2023-04-29T11:49:52;5.27;;;2.90;;
12663;SDS011;6396;58.490;15.528;2023-04-29T11:52:18;3.90;;;2.83;;
12663;SDS011;6396;58.490;15.528;2023-04-29T11:54:45;5.57;;;2.60;;
12663;SDS011;6396;58.490;15.528;2023-04-29T11:57:12;3.60;;;2.53;;
12663;SDS011;6396;58.490;15.528;2023-04-29T11:59:40;3.23;;;2.93;;
12663;SDS011;6396;58.490;15.528;2023-04-29T12:02:11;3.90;;;2.77;;
12663;SDS011;6396;58.490;15.528;2023-04-29T12:04:48;5.20;;;3.07;;
12663;SDS011;6396;58.490;15.528;2023-04-29T12:07:15;6.10;;;3.10;;
12663;SDS011;6396;58.490;15.528;2023-04-29T12:09:42;4.33;;;3.20;;
12663;SDS011;6396;58.490;15.528;2023-04-29T12:12:10;5.13;;;3.30;;
12663;SDS011;6396;58.490;15.528;2023-04-29T12:14:41;4.70;;;3.33;;
12663;SDS011;6396;58.490;15.528;2023-04-29T12:17:08;5.13;;;3.10;;
12663;SDS011;6396;58.490;15.528;2023-04-29T12:19:37;3.63;;;2.43;;
12663;SDS011;6396;58.490;15.528;2023-04-29T12:22:05;5.97;;;2.90;;
12663;SDS011;6396;58.490;15.528;2023-04-29T12:24:33;5.30;;;3.00;;
12663;SDS011;6396;58.490;15.528;2023-04-29T12:27:01;3.73;;;2.87;;
12663;SDS011;6396;58.490;15.528;2023-04-29T12:29:30;6.63;;;3.23;;
12663;SDS011;6396;58.490;15.528;2023-04-29T12:31:57;7.07;;;2.97;;
12663;SDS011;6396;58.490;15.528;2023-04-29T12:34:24;4.93;;;3.40;;
12663;SDS011;6396;58.490;15.528;2023-04-29T12:36:54;5.30;;;3.10;;
12663;SDS011;6396;58.490;15.528;2023-04-29T12:39:22;4.53;;;3.30;;
12663;SDS011;6396;58.490;15.528;2023-04-29T12:41:53;4.13;;;3.23;;
12663;SDS011;6396;58.490;15.528;2023-04-29T12:44:22;4.63;;;3.03;;
12663;SDS011;6396;58.490;15.528;2023-04-29T12:46:49;3.43;;;2.93;;
12663;SDS011;6396;58.490;15.528;2023-04-29T12:49:18;4.00;;;2.70;;
12663;SDS011;6396;58.490;15.528;2023-04-29T12:51:45;5.60;;;3.10;;
12663;SDS011;6396;58.490;15.528;2023-04-29T12:54:14;4.13;;;3.03;;
12663;SDS011;6396;58.490;15.528;2023-04-29T12:56:41;6.93;;;3.53;;
12663;SDS011;6396;58.490;15.528;2023-04-29T12:59:08;5.20;;;3.20;;
12663;SDS011;6396;58.490;15.528;2023-04-29T13:01:35;6.07;;;3.33;;
12663;SDS011;6396;58.490;15.528;2023-04-29T13:04:03;7.47;;;3.33;;
12663;SDS011;6396;58.490;15.528;2023-04-29T13:06:32;7.97;;;3.90;;
12663;SDS011;6396;58.490;15.528;2023-04-29T13:09:04;6.17;;;4.60;;
12663;SDS011;6396;58.490;15.528;2023-04-29T13:11:32;7.20;;;4.57;;
12663;SDS011;6396;58.490;15.528;2023-04-29T13:14:00;5.70;;;4.27;;
12663;SDS011;6396;58.490;15.528;2023-04-29T13:16:29;6.60;;;5.03;;
12663;SDS011;6396;58.490;15.528;2023-04-29T13:18:56;6.03;;;4.77;;
12663;SDS011;6396;58.490;15.528;2023-04-29T13:21:23;6.13;;;4.87;;
12663;SDS011;6396;58.490;15.528;2023-04-29T13:23:52;4.50;;;3.83;;
12663;SDS011;6396;58.490;15.528;2023-04-29T13:26:18;7.83;;;4.67;;
12663;SDS011;6396;58.490;15.528;2023-04-29T13:28:47;4.53;;;3.80;;
12663;SDS011;6396;58.490;15.528;2023-04-29T13:31:13;5.93;;;2.90;;
12663;SDS011;6396;58.490;15.528;2023-04-29T13:33:41;3.23;;;2.30;;
12663;SDS011;6396;58.490;15.528;2023-04-29T13:36:08;4.27;;;2.37;;
12663;SDS011;6396;58.490;15.528;2023-04-29T13:38:34;3.67;;;2.90;;
12663;SDS011;6396;58.490;15.528;2023-04-29T13:41:01;4.67;;;2.70;;
12663;SDS011;6396;58.490;15.528;2023-04-29T13:43:28;2.53;;;2.13;;
12663;SDS011;6396;58.490;15.528;2023-04-29T13:45:56;4.47;;;2.10;;
12663;SDS011;6396;58.490;15.528;2023-04-29T13:48:23;3.43;;;1.77;;
12663;SDS011;6396;58.490;15.528;2023-04-29T13:50:50;2.70;;;2.00;;
12663;SDS011;6396;58.490;15.528;2023-04-29T13:53:18;2.37;;;1.57;;
12663;SDS011;6396;58.490;15.528;2023-04-29T13:55:45;2.13;;;1.77;;
12663;SDS011;6396;58.490;15.528;2023-04-29T13:58:11;2.57;;;1.70;;
12663;SDS011;6396;58.490;15.528;2023-04-29T14:00:38;2.70;;;1.90;;
12663;SDS011;6396;58.490;15.528;2023-04-29T14:03:06;3.37;;;2.00;;
12663;SDS011;6396;58.490;15.528;2023-04-29T14:05:41;3.27;;;1.67;;
12663;SDS011;6396;58.490;15.528;2023-04-29T14:08:07;3.17;;;2.03;;
12663;SDS011;6396;58.490;15.528;2023-04-29T14:10:34;2.03;;;1.40;;
12663;SDS011;6396;58.490;15.528;2023-04-29T14:13:02;3.60;;;1.60;;
12663;SDS011;6396;58.490;15.528;2023-04-29T14:15:29;2.83;;;1.80;;
12663;SDS011;6396;58.490;15.528;2023-04-29T14:17:56;2.63;;;1.90;;
12663;SDS011;6396;58.490;15.528;2023-04-29T14:20:25;1.67;;;1.50;;
12663;SDS011;6396;58.490;15.528;2023-04-29T14:22:52;2.70;;;1.80;;
12663;SDS011;6396;58.490;15.528;2023-04-29T14:25:19;3.33;;;1.80;;
12663;SDS011;6396;58.490;15.528;2023-04-29T14:27:46;4.03;;;1.93;;
12663;SDS011;6396;58.490;15.528;2023-04-29T14:30:13;4.83;;;1.60;;
12663;SDS011;6396;58.490;15.528;2023-04-29T14:32:40;1.40;;;1.30;;
12663;SDS011;6396;58.490;15.528;2023-04-29T14:35:07;2.47;;;1.90;;
12663;SDS011;6396;58.490;15.528;2023-04-29T14:37:36;2.70;;;1.80;;
12663;SDS011;6396;58.490;15.528;2023-04-29T14:40:04;3.17;;;2.20;;
12663;SDS011;6396;58.490;15.528;2023-04-29T14:42:32;2.50;;;1.70;;
12663;SDS011;6396;58.490;15.528;2023-04-29T14:44:58;2.63;;;1.87;;
12663;SDS011;6396;58.490;15.528;2023-04-29T14:47:25;2.23;;;1.60;;
12663;SDS011;6396;58.490;15.528;2023-04-29T14:49:53;2.70;;;1.70;;
12663;SDS011;6396;58.490;15.528;2023-04-29T14:52:20;2.23;;;1.70;;
12663;SDS011;6396;58.490;15.528;2023-04-29T14:54:49;4.67;;;1.80;;
12663;SDS011;6396;58.490;15.528;2023-04-29T14:57:16;3.13;;;1.90;;
12663;SDS011;6396;58.490;15.528;2023-04-29T14:59:44;4.40;;;2.20;;
12663;SDS011;6396;58.490;15.528;2023-04-29T15:02:11;3.63;;;2.20;;
12663;SDS011;6396;58.490;15.528;2023-04-29T15:04:38;4.37;;;2.30;;
12663;SDS011;6396;58.490;15.528;2023-04-29T15:07:09;2.40;;;1.83;;